sensor_id;sensor_type;location;lat;lon;timestamp;P1;durP1;ratioP1;P2;durP2;ratioP2
28629;SDS011;15817;42.130;24.762;2023-04-02T00:06:26;3.05;;;1.58;;
28629;SDS011;15817;42.130;24.762;2023-04-02T00:08:55;2.63;;;1.55;;
28629;SDS011;15817;42.130;24.762;2023-04-02T00:11:29;3.58;;;1.50;;
28629;SDS011;15817;42.130;24.762;2023-04-02T00:13:59;2.70;;;1.55;;
28629;SDS011;15817;42.130;24.762;2023-04-02T00:16:26;2.72;;;1.70;;
28629;SDS011;15817;42.130;24.762;2023-04-02T00:18:53;2.72;;;1.67;;
28629;SDS011;15817;42.130;24.762;2023-04-02T00:21:35;3.78;;;2.20;;
28629;SDS011;15817;42.130;24.762;2023-04-02T00:24:08;2.38;;;1.52;;
28629;SDS011;15817;42.130;24.762;2023-04-02T00:26:39;2.03;;;1.60;;
28629;SDS011;15817;42.130;24.762;2023-04-02T00:29:09;3.47;;;1.50;;
28629;SDS011;15817;42.130;24.762;2023-04-02T00:31:37;4.10;;;1.42;;
28629;SDS011;15817;42.130;24.762;2023-04-02T00:34:07;1.77;;;1.50;;
28629;SDS011;15817;42.130;24.762;2023-04-02T00:36:39;3.20;;;1.95;;
28629;SDS011;15817;42.130;24.762;2023-04-02T00:39:07;2.67;;;1.77;;
28629;SDS011;15817;42.130;24.762;2023-04-02T00:41:41;2.65;;;1.55;;
28629;SDS011;15817;42.130;24.762;2023-04-02T00:44:12;3.03;;;1.67;;
28629;SDS011;15817;42.130;24.762;2023-04-02T00:46:41;3.03;;;2.10;;
28629;SDS011;15817;42.130;24.762;2023-04-02T00:52:05;3.40;;;1.63;;
28629;SDS011;15817;42.130;24.762;2023-04-02T00:54:47;4.32;;;2.50;;
28629;SDS011;15817;42.130;24.762;2023-04-02T00:57:18;3.20;;;2.13;;
28629;SDS011;15817;42.130;24.762;2023-04-02T00:59:54;2.10;;;1.45;;
28629;SDS011;15817;42.130;24.762;2023-04-02T01:02:40;1.50;;;1.40;;
28629;SDS011;15817;42.130;24.762;2023-04-02T01:12:47;2.50;;;1.30;;
28629;SDS011;15817;42.130;24.762;2023-04-02T01:15:20;1.50;;;1.40;;
28629;SDS011;15817;42.130;24.762;2023-04-02T01:28:26;4.18;;;1.95;;
28629;SDS011;15817;42.130;24.762;2023-04-02T01:31:02;3.72;;;2.17;;
28629;SDS011;15817;42.130;24.762;2023-04-02T01:33:33;3.65;;;2.38;;
28629;SDS011;15817;42.130;24.762;2023-04-02T01:36:21;3.80;;;2.08;;
28629;SDS011;15817;42.130;24.762;2023-04-02T01:38:59;6.65;;;1.80;;
28629;SDS011;15817;42.130;24.762;2023-04-02T01:41:46;3.95;;;2.10;;
28629;SDS011;15817;42.130;24.762;2023-04-02T01:44:31;6.63;;;2.70;;
28629;SDS011;15817;42.130;24.762;2023-04-02T01:47:09;6.85;;;2.30;;
28629;SDS011;15817;42.130;24.762;2023-04-02T01:49:42;5.18;;;2.28;;
28629;SDS011;15817;42.130;24.762;2023-04-02T01:52:23;3.08;;;2.10;;
28629;SDS011;15817;42.130;24.762;2023-04-02T01:55:11;3.97;;;1.90;;
28629;SDS011;15817;42.130;24.762;2023-04-02T01:57:40;3.25;;;1.48;;
28629;SDS011;15817;42.130;24.762;2023-04-02T02:00:16;3.22;;;1.40;;
28629;SDS011;15817;42.130;24.762;2023-04-02T02:02:48;1.90;;;1.55;;
28629;SDS011;15817;42.130;24.762;2023-04-02T02:05:20;2.97;;;1.27;;
28629;SDS011;15817;42.130;24.762;2023-04-02T02:07:55;7.47;;;1.50;;
28629;SDS011;15817;42.130;24.762;2023-04-02T02:10:28;2.75;;;1.55;;
28629;SDS011;15817;42.130;24.762;2023-04-02T02:13:19;3.25;;;2.08;;
28629;SDS011;15817;42.130;24.762;2023-04-02T02:15:51;3.30;;;2.10;;
28629;SDS011;15817;42.130;24.762;2023-04-02T02:18:22;3.85;;;2.58;;
28629;SDS011;15817;42.130;24.762;2023-04-02T02:20:49;4.07;;;2.30;;
28629;SDS011;15817;42.130;24.762;2023-04-02T02:23:18;2.92;;;2.00;;
28629;SDS011;15817;42.130;24.762;2023-04-02T02:25:46;3.45;;;2.00;;
28629;SDS011;15817;42.130;24.762;2023-04-02T02:28:25;2.75;;;1.77;;
28629;SDS011;15817;42.130;24.762;2023-04-02T02:34:03;2.70;;;1.85;;
28629;SDS011;15817;42.130;24.762;2023-04-02T02:36:50;1.45;;;1.17;;
28629;SDS011;15817;42.130;24.762;2023-04-02T02:42:58;3.78;;;1.70;;
28629;SDS011;15817;42.130;24.762;2023-04-02T02:45:37;9.38;;;1.85;;
28629;SDS011;15817;42.130;24.762;2023-04-02T02:51:43;2.47;;;0.98;;
28629;SDS011;15817;42.130;24.762;2023-04-02T02:55:00;2.92;;;1.35;;
28629;SDS011;15817;42.130;24.762;2023-04-02T03:01:46;2.15;;;1.10;;
28629;SDS011;15817;42.130;24.762;2023-04-02T03:04:44;1.23;;;1.00;;
28629;SDS011;15817;42.130;24.762;2023-04-02T03:07:54;6.65;;;1.30;;
28629;SDS011;15817;42.130;24.762;2023-04-02T03:16:23;1.67;;;1.38;;
28629;SDS011;15817;42.130;24.762;2023-04-02T03:21:35;1.75;;;1.02;;
28629;SDS011;15817;42.130;24.762;2023-04-02T03:24:36;1.13;;;0.85;;
28629;SDS011;15817;42.130;24.762;2023-04-02T03:27:38;3.25;;;1.30;;
28629;SDS011;15817;42.130;24.762;2023-04-02T03:30:56;2.97;;;1.65;;
28629;SDS011;15817;42.130;24.762;2023-04-02T03:40:09;4.85;;;1.40;;
28629;SDS011;15817;42.130;24.762;2023-04-02T03:43:24;5.78;;;3.58;;
28629;SDS011;15817;42.130;24.762;2023-04-02T03:46:30;2.40;;;1.65;;
28629;SDS011;15817;42.130;24.762;2023-04-02T03:49:32;5.05;;;1.70;;
28629;SDS011;15817;42.130;24.762;2023-04-02T03:52:12;2.63;;;1.48;;
28629;SDS011;15817;42.130;24.762;2023-04-02T03:54:41;2.33;;;1.40;;
28629;SDS011;15817;42.130;24.762;2023-04-02T03:57:12;3.88;;;1.63;;
28629;SDS011;15817;42.130;24.762;2023-04-02T03:59:53;2.03;;;1.30;;
28629;SDS011;15817;42.130;24.762;2023-04-02T04:04:51;7.72;;;1.52;;
28629;SDS011;15817;42.130;24.762;2023-04-02T04:07:26;1.85;;;1.50;;
28629;SDS011;15817;42.130;24.762;2023-04-02T04:09:55;4.10;;;1.70;;
28629;SDS011;15817;42.130;24.762;2023-04-02T04:12:39;1.95;;;1.42;;
28629;SDS011;15817;42.130;24.762;2023-04-02T04:15:29;3.97;;;1.83;;
28629;SDS011;15817;42.130;24.762;2023-04-02T04:24:44;4.20;;;1.60;;
28629;SDS011;15817;42.130;24.762;2023-04-02T04:34:28;1.73;;;1.38;;
28629;SDS011;15817;42.130;24.762;2023-04-02T04:37:03;4.30;;;1.42;;
28629;SDS011;15817;42.130;24.762;2023-04-02T04:43:14;2.38;;;1.50;;
28629;SDS011;15817;42.130;24.762;2023-04-02T04:46:05;1.70;;;1.20;;
28629;SDS011;15817;42.130;24.762;2023-04-02T04:52:55;2.95;;;1.70;;
28629;SDS011;15817;42.130;24.762;2023-04-02T04:56:29;2.60;;;1.50;;
28629;SDS011;15817;42.130;24.762;2023-04-02T05:11:07;3.35;;;1.63;;
28629;SDS011;15817;42.130;24.762;2023-04-02T05:32:00;4.65;;;1.95;;
28629;SDS011;15817;42.130;24.762;2023-04-02T05:35:31;4.57;;;2.05;;
28629;SDS011;15817;42.130;24.762;2023-04-02T05:46:58;3.95;;;1.90;;
28629;SDS011;15817;42.130;24.762;2023-04-02T06:53:47;5.88;;;1.42;;
28629;SDS011;15817;42.130;24.762;2023-04-02T06:56:43;4.20;;;1.73;;
28629;SDS011;15817;42.130;24.762;2023-04-02T06:59:51;6.28;;;1.92;;
28629;SDS011;15817;42.130;24.762;2023-04-02T07:02:46;2.92;;;1.45;;
28629;SDS011;15817;42.130;24.762;2023-04-02T07:05:23;2.45;;;1.08;;
28629;SDS011;15817;42.130;24.762;2023-04-02T07:07:52;2.15;;;1.20;;
28629;SDS011;15817;42.130;24.762;2023-04-02T07:10:42;2.03;;;1.23;;
28629;SDS011;15817;42.130;24.762;2023-04-02T07:13:32;3.63;;;1.20;;
28629;SDS011;15817;42.130;24.762;2023-04-02T07:16:10;4.25;;;1.45;;
28629;SDS011;15817;42.130;24.762;2023-04-02T07:20:03;4.20;;;1.50;;
28629;SDS011;15817;42.130;24.762;2023-04-02T07:23:06;1.88;;;1.25;;
28629;SDS011;15817;42.130;24.762;2023-04-02T07:25:39;2.20;;;1.17;;
28629;SDS011;15817;42.130;24.762;2023-04-02T07:31:27;2.38;;;1.27;;
28629;SDS011;15817;42.130;24.762;2023-04-02T07:34:29;1.17;;;1.05;;
28629;SDS011;15817;42.130;24.762;2023-04-02T07:37:47;3.88;;;1.17;;
28629;SDS011;15817;42.130;24.762;2023-04-02T07:57:52;2.17;;;1.42;;
28629;SDS011;15817;42.130;24.762;2023-04-02T08:03:32;5.00;;;1.40;;
28629;SDS011;15817;42.130;24.762;2023-04-02T08:16:49;1.45;;;0.95;;
28629;SDS011;15817;42.130;24.762;2023-04-02T08:19:27;0.95;;;0.80;;
28629;SDS011;15817;42.130;24.762;2023-04-02T08:21:53;1.33;;;0.85;;
28629;SDS011;15817;42.130;24.762;2023-04-02T08:24:19;1.83;;;0.88;;
28629;SDS011;15817;42.130;24.762;2023-04-02T08:26:48;2.88;;;0.82;;
28629;SDS011;15817;42.130;24.762;2023-04-02T08:29:18;1.25;;;0.80;;
28629;SDS011;15817;42.130;24.762;2023-04-02T08:31:47;1.83;;;0.90;;
28629;SDS011;15817;42.130;24.762;2023-04-02T08:35:02;3.20;;;0.85;;
28629;SDS011;15817;42.130;24.762;2023-04-02T08:37:30;4.68;;;0.82;;
28629;SDS011;15817;42.130;24.762;2023-04-02T08:39:56;9.20;;;1.02;;
28629;SDS011;15817;42.130;24.762;2023-04-02T08:47:38;1.63;;;0.80;;
28629;SDS011;15817;42.130;24.762;2023-04-02T08:50:12;1.80;;;1.05;;
28629;SDS011;15817;42.130;24.762;2023-04-02T08:53:09;3.50;;;0.93;;
28629;SDS011;15817;42.130;24.762;2023-04-02T08:55:53;4.25;;;1.23;;
28629;SDS011;15817;42.130;24.762;2023-04-02T09:08:23;1.10;;;0.88;;
28629;SDS011;15817;42.130;24.762;2023-04-02T09:11:07;3.25;;;0.80;;
28629;SDS011;15817;42.130;24.762;2023-04-02T09:17:01;1.10;;;0.70;;
28629;SDS011;15817;42.130;24.762;2023-04-02T09:19:42;2.85;;;0.65;;
28629;SDS011;15817;42.130;24.762;2023-04-02T09:22:36;3.83;;;0.93;;
28629;SDS011;15817;42.130;24.762;2023-04-02T09:25:03;1.20;;;0.60;;
28629;SDS011;15817;42.130;24.762;2023-04-02T09:27:36;0.88;;;0.70;;
28629;SDS011;15817;42.130;24.762;2023-04-02T09:30:05;2.08;;;1.00;;
28629;SDS011;15817;42.130;24.762;2023-04-02T09:32:57;1.55;;;0.80;;
28629;SDS011;15817;42.130;24.762;2023-04-02T09:35:32;1.88;;;0.80;;
28629;SDS011;15817;42.130;24.762;2023-04-02T09:41:02;1.02;;;0.75;;
28629;SDS011;15817;42.130;24.762;2023-04-02T09:43:33;2.83;;;0.80;;
28629;SDS011;15817;42.130;24.762;2023-04-02T09:46:02;2.10;;;1.38;;
28629;SDS011;15817;42.130;24.762;2023-04-02T09:48:39;1.15;;;0.70;;
28629;SDS011;15817;42.130;24.762;2023-04-02T09:53:43;3.70;;;0.90;;
28629;SDS011;15817;42.130;24.762;2023-04-02T09:56:31;2.45;;;0.90;;
28629;SDS011;15817;42.130;24.762;2023-04-02T09:59:03;1.45;;;1.00;;
28629;SDS011;15817;42.130;24.762;2023-04-02T10:01:42;1.13;;;0.75;;
28629;SDS011;15817;42.130;24.762;2023-04-02T10:07:28;0.65;;;0.65;;
28629;SDS011;15817;42.130;24.762;2023-04-02T10:12:44;0.82;;;0.75;;
28629;SDS011;15817;42.130;24.762;2023-04-02T10:15:36;1.55;;;0.73;;
28629;SDS011;15817;42.130;24.762;2023-04-02T10:21:18;4.38;;;0.68;;
28629;SDS011;15817;42.130;24.762;2023-04-02T10:23:55;1.13;;;0.70;;
28629;SDS011;15817;42.130;24.762;2023-04-02T10:38:58;1.05;;;0.60;;
28629;SDS011;15817;42.130;24.762;2023-04-02T10:41:17;0.65;;;0.50;;
28629;SDS011;15817;42.130;24.762;2023-04-02T10:44:04;2.60;;;0.60;;
28629;SDS011;15817;42.130;24.762;2023-04-02T10:47:03;0.85;;;0.60;;
28629;SDS011;15817;42.130;24.762;2023-04-02T10:49:44;2.17;;;0.47;;
28629;SDS011;15817;42.130;24.762;2023-04-02T10:52:47;0.75;;;0.50;;
28629;SDS011;15817;42.130;24.762;2023-04-02T10:55:37;0.55;;;0.52;;
28629;SDS011;15817;42.130;24.762;2023-04-02T10:58:23;0.88;;;0.40;;
28629;SDS011;15817;42.130;24.762;2023-04-02T11:00:57;1.02;;;0.63;;
28629;SDS011;15817;42.130;24.762;2023-04-02T11:03:35;0.50;;;0.40;;
28629;SDS011;15817;42.130;24.762;2023-04-02T11:06:25;0.70;;;0.50;;
28629;SDS011;15817;42.130;24.762;2023-04-02T11:08:59;0.57;;;0.30;;
28629;SDS011;15817;42.130;24.762;2023-04-02T11:16:46;0.70;;;0.65;;
28629;SDS011;15817;42.130;24.762;2023-04-02T11:19:27;0.52;;;0.47;;
28629;SDS011;15817;42.130;24.762;2023-04-02T11:22:03;3.80;;;0.50;;
28629;SDS011;15817;42.130;24.762;2023-04-02T11:24:42;7.00;;;0.75;;
28629;SDS011;15817;42.130;24.762;2023-04-02T11:27:16;1.17;;;0.68;;
28629;SDS011;15817;42.130;24.762;2023-04-02T11:29:53;1.73;;;0.90;;
28629;SDS011;15817;42.130;24.762;2023-04-02T11:32:43;0.60;;;0.50;;
28629;SDS011;15817;42.130;24.762;2023-04-02T11:38:53;2.15;;;0.85;;
28629;SDS011;15817;42.130;24.762;2023-04-02T11:45:51;0.88;;;0.60;;
28629;SDS011;15817;42.130;24.762;2023-04-02T12:28:36;1.63;;;0.65;;
28629;SDS011;15817;42.130;24.762;2023-04-02T12:33:40;5.45;;;0.85;;
28629;SDS011;15817;42.130;24.762;2023-04-02T12:38:43;1.35;;;0.65;;
28629;SDS011;15817;42.130;24.762;2023-04-02T12:41:31;0.63;;;0.60;;
28629;SDS011;15817;42.130;24.762;2023-04-02T12:44:01;1.23;;;0.75;;
28629;SDS011;15817;42.130;24.762;2023-04-02T12:46:40;1.90;;;1.08;;
28629;SDS011;15817;42.130;24.762;2023-04-02T12:52:06;1.02;;;0.60;;
28629;SDS011;15817;42.130;24.762;2023-04-02T12:54:43;2.92;;;0.70;;
28629;SDS011;15817;42.130;24.762;2023-04-02T12:57:32;2.53;;;0.60;;
28629;SDS011;15817;42.130;24.762;2023-04-02T13:05:47;1.73;;;0.85;;
28629;SDS011;15817;42.130;24.762;2023-04-02T13:08:18;1.73;;;0.85;;
28629;SDS011;15817;42.130;24.762;2023-04-02T13:11:02;2.25;;;1.58;;
28629;SDS011;15817;42.130;24.762;2023-04-02T13:13:39;1.40;;;0.98;;
28629;SDS011;15817;42.130;24.762;2023-04-02T13:21:50;0.60;;;0.45;;
28629;SDS011;15817;42.130;24.762;2023-04-02T13:24:22;1.58;;;0.70;;
28629;SDS011;15817;42.130;24.762;2023-04-02T13:26:52;2.28;;;0.73;;
28629;SDS011;15817;42.130;24.762;2023-04-02T13:29:24;1.20;;;0.60;;
28629;SDS011;15817;42.130;24.762;2023-04-02T13:32:04;1.20;;;0.65;;
28629;SDS011;15817;42.130;24.762;2023-04-02T13:34:52;1.08;;;0.70;;
28629;SDS011;15817;42.130;24.762;2023-04-02T13:37:36;3.10;;;0.68;;
28629;SDS011;15817;42.130;24.762;2023-04-02T13:40:07;1.15;;;0.55;;
28629;SDS011;15817;42.130;24.762;2023-04-02T13:42:43;0.80;;;0.50;;
28629;SDS011;15817;42.130;24.762;2023-04-02T13:45:23;2.05;;;0.75;;
28629;SDS011;15817;42.130;24.762;2023-04-02T13:47:51;0.88;;;0.55;;
28629;SDS011;15817;42.130;24.762;2023-04-02T13:50:35;0.77;;;0.55;;
28629;SDS011;15817;42.130;24.762;2023-04-02T13:53:05;1.50;;;1.00;;
28629;SDS011;15817;42.130;24.762;2023-04-02T13:55:42;1.13;;;0.70;;
28629;SDS011;15817;42.130;24.762;2023-04-02T13:58:21;1.38;;;0.60;;
28629;SDS011;15817;42.130;24.762;2023-04-02T14:00:57;0.82;;;0.60;;
28629;SDS011;15817;42.130;24.762;2023-04-02T14:03:33;6.18;;;1.00;;
28629;SDS011;15817;42.130;24.762;2023-04-02T14:06:21;2.28;;;0.70;;
28629;SDS011;15817;42.130;24.762;2023-04-02T14:22:33;1.73;;;0.68;;
28629;SDS011;15817;42.130;24.762;2023-04-02T14:52:37;2.35;;;1.13;;
28629;SDS011;15817;42.130;24.762;2023-04-02T14:55:46;1.95;;;0.80;;
28629;SDS011;15817;42.130;24.762;2023-04-02T14:59:00;2.15;;;0.70;;
28629;SDS011;15817;42.130;24.762;2023-04-02T15:02:33;5.85;;;0.80;;
28629;SDS011;15817;42.130;24.762;2023-04-02T15:05:18;2.38;;;0.77;;
28629;SDS011;15817;42.130;24.762;2023-04-02T15:17:22;0.88;;;0.70;;
28629;SDS011;15817;42.130;24.762;2023-04-02T15:19:58;1.75;;;0.90;;
28629;SDS011;15817;42.130;24.762;2023-04-02T15:22:55;11.48;;;2.25;;
28629;SDS011;15817;42.130;24.762;2023-04-02T15:28:24;1.27;;;0.65;;
28629;SDS011;15817;42.130;24.762;2023-04-02T15:31:10;3.63;;;0.95;;
28629;SDS011;15817;42.130;24.762;2023-04-02T15:42:21;1.02;;;0.70;;
28629;SDS011;15817;42.130;24.762;2023-04-02T15:50:57;0.80;;;0.68;;
28629;SDS011;15817;42.130;24.762;2023-04-02T15:56:47;2.72;;;1.25;;
28629;SDS011;15817;42.130;24.762;2023-04-02T16:11:25;4.38;;;1.38;;
28629;SDS011;15817;42.130;24.762;2023-04-02T16:13:59;2.75;;;0.70;;
28629;SDS011;15817;42.130;24.762;2023-04-02T16:16:51;3.03;;;0.95;;
28629;SDS011;15817;42.130;24.762;2023-04-02T16:22:43;1.95;;;1.17;;
28629;SDS011;15817;42.130;24.762;2023-04-02T16:28:39;12.10;;;1.83;;
28629;SDS011;15817;42.130;24.762;2023-04-02T16:33:59;4.95;;;1.55;;
28629;SDS011;15817;42.130;24.762;2023-04-02T16:58:49;1.92;;;1.02;;
28629;SDS011;15817;42.130;24.762;2023-04-02T17:01:34;3.28;;;1.60;;
28629;SDS011;15817;42.130;24.762;2023-04-02T17:07:52;5.47;;;2.35;;
28629;SDS011;15817;42.130;24.762;2023-04-02T17:10:30;4.72;;;2.53;;
28629;SDS011;15817;42.130;24.762;2023-04-02T17:13:31;6.97;;;3.20;;
28629;SDS011;15817;42.130;24.762;2023-04-02T17:18:51;8.80;;;4.22;;
28629;SDS011;15817;42.130;24.762;2023-04-02T17:21:41;3.75;;;1.92;;
28629;SDS011;15817;42.130;24.762;2023-04-02T17:30:16;2.55;;;1.20;;
28629;SDS011;15817;42.130;24.762;2023-04-02T17:33:14;6.15;;;1.20;;
28629;SDS011;15817;42.130;24.762;2023-04-02T17:36:02;4.30;;;0.98;;
28629;SDS011;15817;42.130;24.762;2023-04-02T17:48:50;2.15;;;1.35;;
28629;SDS011;15817;42.130;24.762;2023-04-02T17:52:13;4.38;;;2.35;;
28629;SDS011;15817;42.130;24.762;2023-04-02T17:54:52;2.75;;;1.70;;
28629;SDS011;15817;42.130;24.762;2023-04-02T17:57:50;3.13;;;1.40;;
28629;SDS011;15817;42.130;24.762;2023-04-02T18:00:37;4.25;;;1.67;;
28629;SDS011;15817;42.130;24.762;2023-04-02T18:10:37;3.35;;;1.50;;
28629;SDS011;15817;42.130;24.762;2023-04-02T18:13:45;2.95;;;1.70;;
28629;SDS011;15817;42.130;24.762;2023-04-02T18:27:07;5.78;;;2.47;;
28629;SDS011;15817;42.130;24.762;2023-04-02T18:29:42;6.95;;;2.70;;
28629;SDS011;15817;42.130;24.762;2023-04-02T18:32:25;3.80;;;2.38;;
28629;SDS011;15817;42.130;24.762;2023-04-02T18:52:03;8.05;;;1.88;;
28629;SDS011;15817;42.130;24.762;2023-04-02T18:55:05;3.40;;;1.70;;
28629;SDS011;15817;42.130;24.762;2023-04-02T18:57:56;5.20;;;1.90;;
28629;SDS011;15817;42.130;24.762;2023-04-02T19:00:44;2.85;;;1.83;;
28629;SDS011;15817;42.130;24.762;2023-04-02T19:06:06;7.20;;;1.77;;
28629;SDS011;15817;42.130;24.762;2023-04-02T19:08:56;3.83;;;1.60;;
28629;SDS011;15817;42.130;24.762;2023-04-02T19:11:31;2.97;;;1.73;;
28629;SDS011;15817;42.130;24.762;2023-04-02T19:14:12;6.28;;;2.13;;
28629;SDS011;15817;42.130;24.762;2023-04-02T19:19:24;4.35;;;1.80;;
28629;SDS011;15817;42.130;24.762;2023-04-02T19:22:17;3.92;;;1.23;;
28629;SDS011;15817;42.130;24.762;2023-04-02T19:25:09;2.78;;;1.30;;
28629;SDS011;15817;42.130;24.762;2023-04-02T19:28:03;3.97;;;2.03;;
28629;SDS011;15817;42.130;24.762;2023-04-02T19:35:17;4.07;;;1.70;;
28629;SDS011;15817;42.130;24.762;2023-04-02T19:41:23;2.13;;;1.42;;
28629;SDS011;15817;42.130;24.762;2023-04-02T19:44:14;3.85;;;1.45;;
28629;SDS011;15817;42.130;24.762;2023-04-02T19:46:49;3.80;;;1.48;;
28629;SDS011;15817;42.130;24.762;2023-04-02T19:49:38;3.05;;;1.50;;
28629;SDS011;15817;42.130;24.762;2023-04-02T19:52:04;1.50;;;1.10;;
28629;SDS011;15817;42.130;24.762;2023-04-02T19:54:37;5.90;;;1.50;;
28629;SDS011;15817;42.130;24.762;2023-04-02T19:57:23;2.88;;;1.42;;
28629;SDS011;15817;42.130;24.762;2023-04-02T19:59:53;3.10;;;1.55;;
28629;SDS011;15817;42.130;24.762;2023-04-02T20:02:26;3.72;;;1.30;;
28629;SDS011;15817;42.130;24.762;2023-04-02T20:04:54;3.22;;;1.80;;
28629;SDS011;15817;42.130;24.762;2023-04-02T20:07:26;7.15;;;1.73;;
28629;SDS011;15817;42.130;24.762;2023-04-02T20:09:55;5.65;;;2.20;;
28629;SDS011;15817;42.130;24.762;2023-04-02T20:12:23;5.88;;;2.10;;
28629;SDS011;15817;42.130;24.762;2023-04-02T20:14:52;10.45;;;2.38;;
28629;SDS011;15817;42.130;24.762;2023-04-02T20:17:18;7.55;;;2.53;;
28629;SDS011;15817;42.130;24.762;2023-04-02T20:19:47;6.07;;;2.30;;
28629;SDS011;15817;42.130;24.762;2023-04-02T20:22:18;4.50;;;1.73;;
28629;SDS011;15817;42.130;24.762;2023-04-02T20:24:45;3.70;;;1.95;;
28629;SDS011;15817;42.130;24.762;2023-04-02T20:27:14;4.18;;;2.03;;
28629;SDS011;15817;42.130;24.762;2023-04-02T20:29:40;3.75;;;2.10;;
28629;SDS011;15817;42.130;24.762;2023-04-02T20:32:07;3.83;;;2.00;;
28629;SDS011;15817;42.130;24.762;2023-04-02T20:34:47;2.67;;;1.92;;
28629;SDS011;15817;42.130;24.762;2023-04-02T20:38:40;4.57;;;2.65;;
28629;SDS011;15817;42.130;24.762;2023-04-02T20:44:41;3.28;;;2.40;;
28629;SDS011;15817;42.130;24.762;2023-04-02T20:47:17;6.32;;;2.60;;
28629;SDS011;15817;42.130;24.762;2023-04-02T20:50:10;7.47;;;2.70;;
28629;SDS011;15817;42.130;24.762;2023-04-02T20:52:36;5.43;;;2.15;;
28629;SDS011;15817;42.130;24.762;2023-04-02T20:55:04;4.82;;;2.30;;
28629;SDS011;15817;42.130;24.762;2023-04-02T20:57:34;6.88;;;2.55;;
28629;SDS011;15817;42.130;24.762;2023-04-02T21:00:03;4.20;;;2.63;;
28629;SDS011;15817;42.130;24.762;2023-04-02T21:02:34;4.65;;;2.33;;
28629;SDS011;15817;42.130;24.762;2023-04-02T21:05:00;6.25;;;1.95;;
28629;SDS011;15817;42.130;24.762;2023-04-02T21:07:26;3.28;;;2.20;;
28629;SDS011;15817;42.130;24.762;2023-04-02T21:09:58;4.45;;;2.10;;
28629;SDS011;15817;42.130;24.762;2023-04-02T21:12:27;4.38;;;2.40;;
28629;SDS011;15817;42.130;24.762;2023-04-02T21:15:00;5.00;;;2.25;;
28629;SDS011;15817;42.130;24.762;2023-04-02T21:17:42;2.38;;;1.90;;
28629;SDS011;15817;42.130;24.762;2023-04-02T21:20:17;5.07;;;2.20;;
28629;SDS011;15817;42.130;24.762;2023-04-02T21:22:43;4.45;;;2.45;;
28629;SDS011;15817;42.130;24.762;2023-04-02T21:25:22;4.78;;;2.13;;
28629;SDS011;15817;42.130;24.762;2023-04-02T21:27:49;6.38;;;2.70;;
28629;SDS011;15817;42.130;24.762;2023-04-02T21:30:30;4.15;;;2.53;;
28629;SDS011;15817;42.130;24.762;2023-04-02T21:33:02;2.83;;;2.08;;
28629;SDS011;15817;42.130;24.762;2023-04-02T21:35:31;3.42;;;2.35;;
28629;SDS011;15817;42.130;24.762;2023-04-02T21:37:58;4.35;;;2.15;;
28629;SDS011;15817;42.130;24.762;2023-04-02T21:40:30;8.38;;;2.38;;
28629;SDS011;15817;42.130;24.762;2023-04-02T21:42:58;5.05;;;2.67;;
28629;SDS011;15817;42.130;24.762;2023-04-02T21:45:27;6.95;;;3.00;;
28629;SDS011;15817;42.130;24.762;2023-04-02T21:47:53;5.80;;;3.30;;
28629;SDS011;15817;42.130;24.762;2023-04-02T21:50:19;5.28;;;2.90;;
28629;SDS011;15817;42.130;24.762;2023-04-02T21:52:48;6.53;;;3.10;;
28629;SDS011;15817;42.130;24.762;2023-04-02T21:55:14;4.55;;;2.95;;
28629;SDS011;15817;42.130;24.762;2023-04-02T21:57:45;6.90;;;2.63;;
28629;SDS011;15817;42.130;24.762;2023-04-02T22:00:12;4.90;;;3.25;;
28629;SDS011;15817;42.130;24.762;2023-04-02T22:02:45;5.05;;;2.88;;
28629;SDS011;15817;42.130;24.762;2023-04-02T22:05:17;7.38;;;2.85;;
28629;SDS011;15817;42.130;24.762;2023-04-02T22:07:45;6.20;;;2.75;;
28629;SDS011;15817;42.130;24.762;2023-04-02T22:10:18;6.60;;;3.03;;
28629;SDS011;15817;42.130;24.762;2023-04-02T22:12:44;4.57;;;2.78;;
28629;SDS011;15817;42.130;24.762;2023-04-02T22:15:10;5.68;;;3.20;;
28629;SDS011;15817;42.130;24.762;2023-04-02T22:17:36;6.90;;;2.97;;
28629;SDS011;15817;42.130;24.762;2023-04-02T22:20:05;3.95;;;2.40;;
28629;SDS011;15817;42.130;24.762;2023-04-02T22:22:31;2.83;;;2.00;;
28629;SDS011;15817;42.130;24.762;2023-04-02T22:24:57;3.97;;;2.17;;
28629;SDS011;15817;42.130;24.762;2023-04-02T22:27:30;2.08;;;1.42;;
28629;SDS011;15817;42.130;24.762;2023-04-02T22:29:56;4.78;;;1.80;;
28629;SDS011;15817;42.130;24.762;2023-04-02T22:32:22;4.50;;;2.55;;
28629;SDS011;15817;42.130;24.762;2023-04-02T22:34:50;4.82;;;1.60;;
28629;SDS011;15817;42.130;24.762;2023-04-02T22:37:16;3.20;;;1.88;;
28629;SDS011;15817;42.130;24.762;2023-04-02T22:39:42;2.95;;;1.40;;
28629;SDS011;15817;42.130;24.762;2023-04-02T22:42:10;4.25;;;1.77;;
28629;SDS011;15817;42.130;24.762;2023-04-02T22:44:36;3.28;;;1.55;;
28629;SDS011;15817;42.130;24.762;2023-04-02T22:47:05;5.13;;;2.05;;
28629;SDS011;15817;42.130;24.762;2023-04-02T22:49:35;2.75;;;1.52;;
28629;SDS011;15817;42.130;24.762;2023-04-02T22:52:01;4.60;;;1.77;;
28629;SDS011;15817;42.130;24.762;2023-04-02T22:54:30;2.90;;;1.63;;
28629;SDS011;15817;42.130;24.762;2023-04-02T22:56:56;2.65;;;1.63;;
28629;SDS011;15817;42.130;24.762;2023-04-02T22:59:21;3.63;;;1.55;;
28629;SDS011;15817;42.130;24.762;2023-04-02T23:01:52;3.47;;;1.50;;
28629;SDS011;15817;42.130;24.762;2023-04-02T23:04:18;6.32;;;1.60;;
28629;SDS011;15817;42.130;24.762;2023-04-02T23:06:45;5.55;;;2.20;;
28629;SDS011;15817;42.130;24.762;2023-04-02T23:09:21;3.08;;;1.70;;
28629;SDS011;15817;42.130;24.762;2023-04-02T23:12:50;6.82;;;1.90;;
28629;SDS011;15817;42.130;24.762;2023-04-02T23:15:38;3.70;;;1.75;;
28629;SDS011;15817;42.130;24.762;2023-04-02T23:19:19;6.97;;;2.22;;
28629;SDS011;15817;42.130;24.762;2023-04-02T23:21:45;4.20;;;1.70;;
28629;SDS011;15817;42.130;24.762;2023-04-02T23:24:11;4.20;;;2.05;;
28629;SDS011;15817;42.130;24.762;2023-04-02T23:26:37;4.57;;;1.95;;
28629;SDS011;15817;42.130;24.762;2023-04-02T23:29:03;4.32;;;2.30;;
28629;SDS011;15817;42.130;24.762;2023-04-02T23:31:30;3.53;;;2.13;;
28629;SDS011;15817;42.130;24.762;2023-04-02T23:33:56;3.25;;;1.90;;
28629;SDS011;15817;42.130;24.762;2023-04-02T23:38:56;3.70;;;2.25;;
28629;SDS011;15817;42.130;24.762;2023-04-02T23:41:28;3.60;;;1.80;;
28629;SDS011;15817;42.130;24.762;2023-04-02T23:43:55;2.92;;;1.90;;
28629;SDS011;15817;42.130;24.762;2023-04-02T23:46:23;2.38;;;1.73;;
28629;SDS011;15817;42.130;24.762;2023-04-02T23:48:50;2.10;;;1.58;;
28629;SDS011;15817;42.130;24.762;2023-04-02T23:51:18;2.15;;;1.10;;
28629;SDS011;15817;42.130;24.762;2023-04-02T23:53:44;1.90;;;1.02;;
28629;SDS011;15817;42.130;24.762;2023-04-02T23:56:10;2.00;;;1.65;;
28629;SDS011;15817;42.130;24.762;2023-04-02T23:58:36;2.00;;;1.25;;
